Lebanon, Kansas
Current Conditions -  °F | °C
As of 11:09 AM on Sunday 23 Nov 2014 (Local Time) from KCNK Reporting Station
Overcast Overcast  
Wind Chill: 40°   Ceiling: 3500
Heat Index: 48°   Visibility: 10mi
Dew Point: 38°   Wind: 25mph
Humidity: 68%   Direction: 350°N
Pressure: 29.52"   Gusts: 39mph
Location:  39.81°N, 98.56°W
Report Text: KCNK 231709Z AUTO 35022G34KT 10SM OVC035 09/03 A2952 RMK AO2 PK WND 34034/1708 T00890033
Loading
Personal Weather Stations






























Interactive Weather Map New forecast layout! Learn more

10-Day Weather Forecast

Advertisements
Track Severe Weather on mobile